sensor_id;sensor_type;location;lat;lon;timestamp;pressure;altitude;pressure_sealevel;temperature;humidity
44531;BME280;30240;47.418;0.700;2023-11-19T11:08:14;100653.33862304688;;;15.65;79.3
44531;BME280;30240;47.418;0.700;2023-11-19T11:10:42;100653.33862304688;;;15.65;79.3
44531;BME280;30240;47.418;0.700;2023-11-19T11:13:05;100771.56372070312;;;15.03;79.36
44531;BME280;30240;47.418;0.700;2023-11-19T11:15:30;100714.501953125;;;15.57;78.38
44531;BME280;30240;47.418;0.700;2023-11-19T11:17:56;100707.91625976562;;;15.06;79.09
44531;BME280;30240;47.418;0.700;2023-11-19T11:20:19;100688.3056640625;;;14.99;79.64
44531;BME280;30240;47.418;0.700;2023-11-19T11:23:30;100688.3056640625;;;14.99;79.64
44531;BME280;30240;47.418;0.700;2023-11-19T11:23:32;100688.3056640625;;;14.99;79.64
44531;BME280;30240;47.418;0.700;2023-11-19T11:23:47;100688.3056640625;;;14.99;79.64
44531;BME280;30240;47.418;0.700;2023-11-19T11:23:58;100688.3056640625;;;14.99;79.64
44531;BME280;30240;47.418;0.700;2023-11-19T11:25:16;100678.98559570312;;;15.98;77.31
44531;BME280;30240;47.418;0.700;2023-11-19T11:27:48;100672.93701171875;;;16.05;76.93
44531;BME280;30240;47.418;0.700;2023-11-19T11:30:06;100641.650390625;;;16.01;76.77
44531;BME280;30240;47.418;0.700;2023-11-19T11:30:11;100641.650390625;;;16.01;76.77
44531;BME280;30240;47.418;0.700;2023-11-19T11:32:34;100640.31372070312;;;16.38;75.78
44531;BME280;30240;47.418;0.700;2023-11-19T11:34:55;100618.7255859375;;;16.58;74.97
44531;BME280;30240;47.418;0.700;2023-11-19T11:37:18;100618.7255859375;;;16.58;74.97
44531;BME280;30240;47.418;0.700;2023-11-19T11:39:40;100644.10400390625;;;17.11;73.46
44531;BME280;30240;47.418;0.700;2023-11-19T11:42:34;100642.35229492188;;;16.17;73.62
44531;BME280;30240;47.418;0.700;2023-11-19T11:44:59;100677.880859375;;;15.86;75.52
44531;BME280;30240;47.418;0.700;2023-11-19T11:46:54;100682.95288085938;;;15.43;75.94
44531;BME280;30240;47.418;0.700;2023-11-19T11:49:26;100682.95288085938;;;15.43;75.94
44531;BME280;30240;47.418;0.700;2023-11-19T11:52:02;100688.00048828125;;;15.32;75.41
44531;BME280;30240;47.418;0.700;2023-11-19T11:54:08;100693.46923828125;;;15.25;74.83
44531;BME280;30240;47.418;0.700;2023-11-19T11:56:36;100663.20190429688;;;16.13;73.46
44531;BME280;30240;47.418;0.700;2023-11-19T11:58:59;100696.6552734375;;;15.27;76.48
44531;BME280;30240;47.418;0.700;2023-11-19T12:01:25;100696.6552734375;;;15.27;76.48
44531;BME280;30240;47.418;0.700;2023-11-19T12:03:50;100696.64306640625;;;15.98;74.66
44531;BME280;30240;47.418;0.700;2023-11-19T12:06:13;100679.79736328125;;;15.77;73.82
44531;BME280;30240;47.418;0.700;2023-11-19T12:08:39;100672.0947265625;;;15.44;73.31
44531;BME280;30240;47.418;0.700;2023-11-19T12:11:05;100630.26733398438;;;16.33;70.34
44531;BME280;30240;47.418;0.700;2023-11-19T12:13:46;100630.26733398438;;;16.33;70.34
44531;BME280;30240;47.418;0.700;2023-11-19T12:16:08;100616.845703125;;;17.27;69.21
44531;BME280;30240;47.418;0.700;2023-11-19T12:18:19;100613.92211914062;;;16.78;71.05
44531;BME280;30240;47.418;0.700;2023-11-19T12:20:43;100620.17822265625;;;16.71;70.15
44531;BME280;30240;47.418;0.700;2023-11-19T12:23:09;100610.16235351562;;;16.85;71.04
44531;BME280;30240;47.418;0.700;2023-11-19T12:25:34;100610.16235351562;;;16.85;71.04
44531;BME280;30240;47.418;0.700;2023-11-19T12:28:00;100621.7529296875;;;16.86;70.82
44531;BME280;30240;47.418;0.700;2023-11-19T12:30:26;100632.22045898438;;;16.41;73.12
44531;BME280;30240;47.418;0.700;2023-11-19T12:32:48;100636.279296875;;;15.93;74.2
44531;BME280;30240;47.418;0.700;2023-11-19T12:35:14;100662.32299804688;;;15.58;75.4
44531;BME280;30240;47.418;0.700;2023-11-19T12:37:39;100662.32299804688;;;15.58;75.4
44531;BME280;30240;47.418;0.700;2023-11-19T12:40:14;100670.20263671875;;;15.79;75.8
44531;BME280;30240;47.418;0.700;2023-11-19T12:42:36;100652.734375;;;16.16;74.76
44531;BME280;30240;47.418;0.700;2023-11-19T12:44:54;100625.77514648438;;;16.85;71.4
44531;BME280;30240;47.418;0.700;2023-11-19T12:47:19;100623.6572265625;;;16.76;70.05
44531;BME280;30240;47.418;0.700;2023-11-19T12:49:55;100623.6572265625;;;16.76;70.05
44531;BME280;30240;47.418;0.700;2023-11-19T12:52:12;100609.12475585938;;;17.16;71.09
44531;BME280;30240;47.418;0.700;2023-11-19T12:54:34;100624.68872070312;;;17.24;69.67
44531;BME280;30240;47.418;0.700;2023-11-19T12:56:59;100627.001953125;;;16.48;69.98
44531;BME280;30240;47.418;0.700;2023-11-19T12:59:24;100608.31298828125;;;16.55;70.15
44531;BME280;30240;47.418;0.700;2023-11-19T13:01:54;100619.90356445312;;;16.2;71.66
44531;BME280;30240;47.418;0.700;2023-11-19T13:04:15;100619.90356445312;;;16.2;71.66
44531;BME280;30240;47.418;0.700;2023-11-19T13:06:44;100630.92041015625;;;16.97;69.46
44531;BME280;30240;47.418;0.700;2023-11-19T13:09:03;100609.1552734375;;;17.16;69.09
44531;BME280;30240;47.418;0.700;2023-11-19T13:11:30;100635.595703125;;;16.59;70.73
44531;BME280;30240;47.418;0.700;2023-11-19T13:13:56;100632.33642578125;;;15.85;71.55
44531;BME280;30240;47.418;0.700;2023-11-19T13:16:19;100632.33642578125;;;15.85;71.55
44531;BME280;30240;47.418;0.700;2023-11-19T13:18:44;100653.4423828125;;;15.99;72.58
44531;BME280;30240;47.418;0.700;2023-11-19T13:21:08;100653.9794921875;;;15.96;72.03
44531;BME280;30240;47.418;0.700;2023-11-19T13:23:33;100640.92407226562;;;15.72;72.74
44531;BME280;30240;47.418;0.700;2023-11-19T13:25:58;100615.90576171875;;;16.05;72.21
44531;BME280;30240;47.418;0.700;2023-11-19T13:28:23;100615.90576171875;;;16.05;72.21
44531;BME280;30240;47.418;0.700;2023-11-19T13:30:50;100596.42333984375;;;17.14;69.46
44531;BME280;30240;47.418;0.700;2023-11-19T13:33:13;100595.8740234375;;;17.3;69.59
44531;BME280;30240;47.418;0.700;2023-11-19T13:35:38;100590.12451171875;;;16.76;69.78
44531;BME280;30240;47.418;0.700;2023-11-19T13:38:04;100566.37573242188;;;16.8;69.49
44531;BME280;30240;47.418;0.700;2023-11-19T13:40:29;100566.37573242188;;;16.8;69.49
44531;BME280;30240;47.418;0.700;2023-11-19T13:42:53;100574.53002929688;;;17.13;69.2
44531;BME280;30240;47.418;0.700;2023-11-19T13:45:19;100572.16186523438;;;16.55;68.78
44531;BME280;30240;47.418;0.700;2023-11-19T13:47:45;100568.2861328125;;;16.86;69.0
44531;BME280;30240;47.418;0.700;2023-11-19T13:50:09;100576.513671875;;;17.38;67.91
44531;BME280;30240;47.418;0.700;2023-11-19T13:52:34;100576.513671875;;;17.38;67.91
44531;BME280;30240;47.418;0.700;2023-11-19T13:54:59;100569.54956054688;;;16.51;69.43
44531;BME280;30240;47.418;0.700;2023-11-19T13:57:24;100574.1943359375;;;16.64;68.95
44531;BME280;30240;47.418;0.700;2023-11-19T13:59:49;100580.46875;;;16.65;69.56
44531;BME280;30240;47.418;0.700;2023-11-19T14:02:14;100576.11083984375;;;17.31;68.34
44531;BME280;30240;47.418;0.700;2023-11-19T14:04:39;100576.11083984375;;;17.31;68.34
44531;BME280;30240;47.418;0.700;2023-11-19T14:07:04;100579.82788085938;;;17.32;68.43
44531;BME280;30240;47.418;0.700;2023-11-19T14:09:29;100567.85888671875;;;17.02;69.33
44531;BME280;30240;47.418;0.700;2023-11-19T14:11:54;100564.14184570312;;;16.97;68.79
44531;BME280;30240;47.418;0.700;2023-11-19T14:14:19;100549.27368164062;;;17.82;68.19
44531;BME280;30240;47.418;0.700;2023-11-19T14:16:43;100549.27368164062;;;17.82;68.19
44531;BME280;30240;47.418;0.700;2023-11-19T14:19:08;100556.8115234375;;;17.41;67.77
44531;BME280;30240;47.418;0.700;2023-11-19T14:21:34;100558.1298828125;;;17.23;68.1
44531;BME280;30240;47.418;0.700;2023-11-19T14:23:59;100563.25073242188;;;16.82;68.72
44531;BME280;30240;47.418;0.700;2023-11-19T14:26:24;100564.43481445312;;;17.2;68.73
44531;BME280;30240;47.418;0.700;2023-11-19T14:28:49;100564.43481445312;;;17.2;68.73
44531;BME280;30240;47.418;0.700;2023-11-19T14:31:13;100571.14868164062;;;17.06;69.07
44531;BME280;30240;47.418;0.700;2023-11-19T14:33:38;100560.8642578125;;;17.44;68.74
44531;BME280;30240;47.418;0.700;2023-11-19T14:36:04;100562.6220703125;;;16.89;68.55
44531;BME280;30240;47.418;0.700;2023-11-19T14:38:29;100556.78100585938;;;17.06;69.58
44531;BME280;30240;47.418;0.700;2023-11-19T14:40:54;100560.36987304688;;;16.44;68.96
44531;BME280;30240;47.418;0.700;2023-11-19T14:43:18;100560.36987304688;;;16.44;68.96
44531;BME280;30240;47.418;0.700;2023-11-19T14:45:44;100574.06005859375;;;16.44;70.21
44531;BME280;30240;47.418;0.700;2023-11-19T14:48:08;100571.40502929688;;;16.71;69.21
44531;BME280;30240;47.418;0.700;2023-11-19T14:50:34;100574.267578125;;;16.12;70.7
44531;BME280;30240;47.418;0.700;2023-11-19T14:52:58;100579.59594726562;;;16.21;70.79
44531;BME280;30240;47.418;0.700;2023-11-19T14:55:24;100579.59594726562;;;16.21;70.79
44531;BME280;30240;47.418;0.700;2023-11-19T14:57:48;100578.18603515625;;;16.06;70.35
44531;BME280;30240;47.418;0.700;2023-11-19T15:00:14;100588.24462890625;;;15.86;70.43
44531;BME280;30240;47.418;0.700;2023-11-19T15:02:39;100587.53051757812;;;16.09;69.71
44531;BME280;30240;47.418;0.700;2023-11-19T15:05:04;100588.48266601562;;;16.82;68.95
44531;BME280;30240;47.418;0.700;2023-11-19T15:07:28;100588.48266601562;;;16.82;68.95
44531;BME280;30240;47.418;0.700;2023-11-19T15:09:54;100585.498046875;;;16.37;69.56
44531;BME280;30240;47.418;0.700;2023-11-19T15:12:19;100590.68603515625;;;16.43;69.46
44531;BME280;30240;47.418;0.700;2023-11-19T15:14:43;100593.89038085938;;;15.85;70.65
44531;BME280;30240;47.418;0.700;2023-11-19T15:17:08;100601.40380859375;;;15.61;71.69
44531;BME280;30240;47.418;0.700;2023-11-19T15:19:34;100601.40380859375;;;15.61;71.69
44531;BME280;30240;47.418;0.700;2023-11-19T15:21:58;100615.0146484375;;;15.64;71.65
44531;BME280;30240;47.418;0.700;2023-11-19T15:24:24;100611.99951171875;;;15.58;72.02
44531;BME280;30240;47.418;0.700;2023-11-19T15:26:49;100609.423828125;;;15.55;72.45
44531;BME280;30240;47.418;0.700;2023-11-19T15:29:21;100620.50170898438;;;15.15;72.6
44531;BME280;30240;47.418;0.700;2023-11-19T15:31:39;100620.50170898438;;;15.15;72.6
44531;BME280;30240;47.418;0.700;2023-11-19T15:34:03;100623.1689453125;;;15.16;72.52
44531;BME280;30240;47.418;0.700;2023-11-19T15:36:29;100624.49340820312;;;15.18;72.42
44531;BME280;30240;47.418;0.700;2023-11-19T15:38:54;100622.63793945312;;;15.05;72.49
44531;BME280;30240;47.418;0.700;2023-11-19T15:41:19;100619.5068359375;;;15.08;72.29
44531;BME280;30240;47.418;0.700;2023-11-19T15:43:44;100619.5068359375;;;15.08;72.29
44531;BME280;30240;47.418;0.700;2023-11-19T15:46:09;100634.2529296875;;;14.96;72.56
44531;BME280;30240;47.418;0.700;2023-11-19T15:48:34;100639.12353515625;;;14.84;72.63
44531;BME280;30240;47.418;0.700;2023-11-19T15:50:59;100644.29931640625;;;14.83;72.75
44531;BME280;30240;47.418;0.700;2023-11-19T15:53:24;100648.095703125;;;14.81;72.93
44531;BME280;30240;47.418;0.700;2023-11-19T15:55:49;100648.095703125;;;14.81;72.93
44531;BME280;30240;47.418;0.700;2023-11-19T15:58:13;100661.8408203125;;;14.74;73.34
44531;BME280;30240;47.418;0.700;2023-11-19T16:00:39;100662.20092773438;;;14.71;73.53
44531;BME280;30240;47.418;0.700;2023-11-19T16:03:03;100669.27490234375;;;14.6;74.03
44531;BME280;30240;47.418;0.700;2023-11-19T16:05:28;100665.0146484375;;;14.51;74.28
44531;BME280;30240;47.418;0.700;2023-11-19T16:07:54;100670.72143554688;;;14.51;74.55
44531;BME280;30240;47.418;0.700;2023-11-19T16:10:19;100670.72143554688;;;14.51;74.55
44531;BME280;30240;47.418;0.700;2023-11-19T16:12:44;100670.95947265625;;;14.42;75.0
44531;BME280;30240;47.418;0.700;2023-11-19T16:15:09;100661.23657226562;;;14.4;74.87
44531;BME280;30240;47.418;0.700;2023-11-19T16:17:34;100662.98217773438;;;14.36;75.17
44531;BME280;30240;47.418;0.700;2023-11-19T16:19:58;100662.22534179688;;;14.3;75.16
44531;BME280;30240;47.418;0.700;2023-11-19T16:22:24;100662.22534179688;;;14.3;75.16
44531;BME280;30240;47.418;0.700;2023-11-19T16:24:48;100654.26635742188;;;14.29;75.0
44531;BME280;30240;47.418;0.700;2023-11-19T16:27:14;100664.65454101562;;;14.21;75.1
44531;BME280;30240;47.418;0.700;2023-11-19T16:29:39;100659.34448242188;;;14.17;75.45
44531;BME280;30240;47.418;0.700;2023-11-19T16:32:04;100654.18701171875;;;14.19;75.07
44531;BME280;30240;47.418;0.700;2023-11-19T16:34:28;100654.18701171875;;;14.19;75.07
44531;BME280;30240;47.418;0.700;2023-11-19T16:36:53;100653.3935546875;;;14.09;75.4
44531;BME280;30240;47.418;0.700;2023-11-19T16:39:19;100654.43725585938;;;14.0;75.75
44531;BME280;30240;47.418;0.700;2023-11-19T16:41:43;100662.78686523438;;;13.94;76.1
44531;BME280;30240;47.418;0.700;2023-11-19T16:44:09;100664.14184570312;;;13.88;76.31
44531;BME280;30240;47.418;0.700;2023-11-19T16:46:33;100664.14184570312;;;13.88;76.31
44531;BME280;30240;47.418;0.700;2023-11-19T16:48:58;100665.93017578125;;;13.84;76.44
44531;BME280;30240;47.418;0.700;2023-11-19T16:51:24;100666.54663085938;;;13.77;76.95
44531;BME280;30240;47.418;0.700;2023-11-19T16:53:49;100669.95239257812;;;13.78;76.91
44531;BME280;30240;47.418;0.700;2023-11-19T16:56:14;100676.01318359375;;;13.74;77.12
44531;BME280;30240;47.418;0.700;2023-11-19T16:58:39;100676.01318359375;;;13.74;77.12
44531;BME280;30240;47.418;0.700;2023-11-19T17:01:04;100683.16650390625;;;13.69;77.29
44531;BME280;30240;47.418;0.700;2023-11-19T17:03:28;100688.03100585938;;;13.66;77.48
44531;BME280;30240;47.418;0.700;2023-11-19T17:05:54;100693.74389648438;;;13.65;77.57
44531;BME280;30240;47.418;0.700;2023-11-19T17:08:18;100696.60034179688;;;13.62;77.68
44531;BME280;30240;47.418;0.700;2023-11-19T17:10:44;100696.60034179688;;;13.62;77.68
44531;BME280;30240;47.418;0.700;2023-11-19T17:13:08;100688.48266601562;;;13.53;78.03
44531;BME280;30240;47.418;0.700;2023-11-19T17:15:33;100688.89770507812;;;13.49;78.38
44531;BME280;30240;47.418;0.700;2023-11-19T17:17:59;100700.01831054688;;;13.41;78.62
44531;BME280;30240;47.418;0.700;2023-11-19T17:20:23;100701.27563476562;;;13.39;78.78
44531;BME280;30240;47.418;0.700;2023-11-19T17:22:48;100701.27563476562;;;13.39;78.78
44531;BME280;30240;47.418;0.700;2023-11-19T17:25:13;100707.01293945312;;;13.35;79.07
44531;BME280;30240;47.418;0.700;2023-11-19T17:27:38;100722.17407226562;;;13.25;79.44
44531;BME280;30240;47.418;0.700;2023-11-19T17:30:04;100725.07934570312;;;13.22;79.61
44531;BME280;30240;47.418;0.700;2023-11-19T17:32:28;100725.67138671875;;;13.24;79.45
44531;BME280;30240;47.418;0.700;2023-11-19T17:34:54;100725.67138671875;;;13.24;79.45
44531;BME280;30240;47.418;0.700;2023-11-19T17:37:18;100727.2216796875;;;13.24;79.43
44531;BME280;30240;47.418;0.700;2023-11-19T17:39:44;100729.296875;;;13.21;79.69
44531;BME280;30240;47.418;0.700;2023-11-19T17:42:09;100739.1845703125;;;13.14;79.96
44531;BME280;30240;47.418;0.700;2023-11-19T17:44:33;100736.70043945312;;;13.04;80.27
44531;BME280;30240;47.418;0.700;2023-11-19T17:46:58;100741.19262695312;;;12.99;80.51
44531;BME280;30240;47.418;0.700;2023-11-19T17:49:23;100741.19262695312;;;12.99;80.51
44531;BME280;30240;47.418;0.700;2023-11-19T17:51:49;100743.06030273438;;;12.92;80.87
44531;BME280;30240;47.418;0.700;2023-11-19T17:54:13;100741.68090820312;;;12.89;80.96
44531;BME280;30240;47.418;0.700;2023-11-19T17:56:39;100747.29614257812;;;12.84;81.17
44531;BME280;30240;47.418;0.700;2023-11-19T17:59:04;100745.0439453125;;;12.84;81.14
44531;BME280;30240;47.418;0.700;2023-11-19T18:01:29;100745.0439453125;;;12.84;81.14
44531;BME280;30240;47.418;0.700;2023-11-19T18:03:54;100742.8466796875;;;12.84;80.99
44531;BME280;30240;47.418;0.700;2023-11-19T18:06:19;100748.45581054688;;;12.77;81.29
44531;BME280;30240;47.418;0.700;2023-11-19T18:08:44;100757.92846679688;;;12.73;81.45
44531;BME280;30240;47.418;0.700;2023-11-19T18:11:09;100749.365234375;;;12.69;81.77
44531;BME280;30240;47.418;0.700;2023-11-19T18:13:34;100749.365234375;;;12.69;81.77
44531;BME280;30240;47.418;0.700;2023-11-19T18:15:59;100750.927734375;;;12.63;81.8
44531;BME280;30240;47.418;0.700;2023-11-19T18:18:24;100751.54418945312;;;12.58;82.09
44531;BME280;30240;47.418;0.700;2023-11-19T18:20:49;100744.4091796875;;;12.58;82.26
44531;BME280;30240;47.418;0.700;2023-11-19T18:23:13;100745.90454101562;;;12.53;82.34
44531;BME280;30240;47.418;0.700;2023-11-19T18:25:39;100745.90454101562;;;12.53;82.34
44531;BME280;30240;47.418;0.700;2023-11-19T18:28:04;100749.23706054688;;;12.49;82.67
44531;BME280;30240;47.418;0.700;2023-11-19T18:30:29;100752.53295898438;;;12.46;82.81
44531;BME280;30240;47.418;0.700;2023-11-19T18:32:53;100755.84106445312;;;12.45;82.86
44531;BME280;30240;47.418;0.700;2023-11-19T18:35:18;100759.68017578125;;;12.35;83.17
44531;BME280;30240;47.418;0.700;2023-11-19T18:37:43;100759.68017578125;;;12.35;83.17
44531;BME280;30240;47.418;0.700;2023-11-19T18:40:09;100760.63842773438;;;12.34;83.17
44531;BME280;30240;47.418;0.700;2023-11-19T18:42:34;100756.2255859375;;;12.33;83.42
44531;BME280;30240;47.418;0.700;2023-11-19T18:44:58;100760.88256835938;;;12.3;83.41
44531;BME280;30240;47.418;0.700;2023-11-19T18:47:23;100764.013671875;;;12.24;83.48
44531;BME280;30240;47.418;0.700;2023-11-19T18:49:48;100764.013671875;;;12.24;83.48
44531;BME280;30240;47.418;0.700;2023-11-19T18:52:13;100767.09594726562;;;12.21;83.43
44531;BME280;30240;47.418;0.700;2023-11-19T18:54:38;100772.607421875;;;12.23;83.43
44531;BME280;30240;47.418;0.700;2023-11-19T18:57:04;100771.62475585938;;;12.18;83.52
44531;BME280;30240;47.418;0.700;2023-11-19T18:59:28;100772.23510742188;;;12.14;83.69
44531;BME280;30240;47.418;0.700;2023-11-19T19:01:53;100772.23510742188;;;12.14;83.69
44531;BME280;30240;47.418;0.700;2023-11-19T19:04:18;100768.38989257812;;;12.07;83.89
44531;BME280;30240;47.418;0.700;2023-11-19T19:06:43;100772.49145507812;;;12.06;83.99
44531;BME280;30240;47.418;0.700;2023-11-19T19:09:08;100763.5986328125;;;11.99;84.06
44531;BME280;30240;47.418;0.700;2023-11-19T19:11:34;100771.96655273438;;;11.96;84.3
44531;BME280;30240;47.418;0.700;2023-11-19T19:13:58;100770.76416015625;;;11.9;84.61
44531;BME280;30240;47.418;0.700;2023-11-19T19:16:24;100770.76416015625;;;11.9;84.61
44531;BME280;30240;47.418;0.700;2023-11-19T19:18:48;100770.78247070312;;;11.9;84.64
44531;BME280;30240;47.418;0.700;2023-11-19T19:21:13;100771.99096679688;;;11.85;84.85
44531;BME280;30240;47.418;0.700;2023-11-19T19:23:38;100770.40405273438;;;11.85;85.03
44531;BME280;30240;47.418;0.700;2023-11-19T19:26:04;100771.826171875;;;11.78;85.16
44531;BME280;30240;47.418;0.700;2023-11-19T19:28:28;100771.826171875;;;11.78;85.16
44531;BME280;30240;47.418;0.700;2023-11-19T19:30:53;100772.8271484375;;;11.76;85.23
44531;BME280;30240;47.418;0.700;2023-11-19T19:33:19;100774.560546875;;;11.78;85.21
44531;BME280;30240;47.418;0.700;2023-11-19T19:35:43;100777.1728515625;;;11.78;85.14
44531;BME280;30240;47.418;0.700;2023-11-19T19:38:09;100779.4677734375;;;11.72;85.28
44531;BME280;30240;47.418;0.700;2023-11-19T19:40:33;100779.4677734375;;;11.72;85.28
44531;BME280;30240;47.418;0.700;2023-11-19T19:42:58;100785.74829101562;;;11.74;85.34
44531;BME280;30240;47.418;0.700;2023-11-19T19:45:24;100788.20190429688;;;11.68;85.44
44531;BME280;30240;47.418;0.700;2023-11-19T19:47:48;100791.54052734375;;;11.66;85.49
44531;BME280;30240;47.418;0.700;2023-11-19T19:50:13;100802.294921875;;;11.65;85.47
44531;BME280;30240;47.418;0.700;2023-11-19T19:52:39;100802.294921875;;;11.65;85.47
44531;BME280;30240;47.418;0.700;2023-11-19T19:55:04;100802.82592773438;;;11.61;85.55
44531;BME280;30240;47.418;0.700;2023-11-19T19:57:28;100800.0;;;11.62;85.56
44531;BME280;30240;47.418;0.700;2023-11-19T19:59:54;100803.59497070312;;;11.58;85.66
44531;BME280;30240;47.418;0.700;2023-11-19T20:02:19;100802.04467773438;;;11.54;85.73
44531;BME280;30240;47.418;0.700;2023-11-19T20:04:43;100802.04467773438;;;11.54;85.73
44531;BME280;30240;47.418;0.700;2023-11-19T20:07:08;100806.2255859375;;;11.55;85.88
44531;BME280;30240;47.418;0.700;2023-11-19T20:09:34;100806.25;;;11.55;85.92
44531;BME280;30240;47.418;0.700;2023-11-19T20:11:58;100809.814453125;;;11.45;86.09
44531;BME280;30240;47.418;0.700;2023-11-19T20:14:23;100814.306640625;;;11.45;86.13
44531;BME280;30240;47.418;0.700;2023-11-19T20:16:49;100814.306640625;;;11.45;86.13
44531;BME280;30240;47.418;0.700;2023-11-19T20:19:14;100804.16259765625;;;11.51;86.03
44531;BME280;30240;47.418;0.700;2023-11-19T20:21:39;100807.03125;;;11.5;86.15
44531;BME280;30240;47.418;0.700;2023-11-19T20:24:04;100811.1083984375;;;11.52;86.12
44531;BME280;30240;47.418;0.700;2023-11-19T20:26:29;100807.12280273438;;;11.45;86.24
44531;BME280;30240;47.418;0.700;2023-11-19T20:28:53;100807.12280273438;;;11.45;86.24
44531;BME280;30240;47.418;0.700;2023-11-19T20:31:18;100806.0302734375;;;11.4;86.52
44531;BME280;30240;47.418;0.700;2023-11-19T20:33:44;100804.87670898438;;;11.41;86.6
44531;BME280;30240;47.418;0.700;2023-11-19T20:36:09;100798.57788085938;;;11.31;86.93
44531;BME280;30240;47.418;0.700;2023-11-19T20:38:33;100811.02905273438;;;11.23;87.03
44531;BME280;30240;47.418;0.700;2023-11-19T20:40:59;100796.89331054688;;;11.22;87.13
44531;BME280;30240;47.418;0.700;2023-11-19T20:43:23;100796.89331054688;;;11.22;87.13
44531;BME280;30240;47.418;0.700;2023-11-19T20:45:48;100798.99291992188;;;11.16;87.3
44531;BME280;30240;47.418;0.700;2023-11-19T20:48:13;100811.89575195312;;;11.24;87.18
44531;BME280;30240;47.418;0.700;2023-11-19T20:50:38;100814.56298828125;;;11.23;87.17
44531;BME280;30240;47.418;0.700;2023-11-19T20:53:04;100816.27197265625;;;11.23;87.08
44531;BME280;30240;47.418;0.700;2023-11-19T20:55:28;100816.27197265625;;;11.23;87.08
44531;BME280;30240;47.418;0.700;2023-11-19T20:57:54;100818.37768554688;;;11.28;86.98
44531;BME280;30240;47.418;0.700;2023-11-19T21:00:18;100824.55444335938;;;11.31;86.95
44531;BME280;30240;47.418;0.700;2023-11-19T21:02:44;100825.01831054688;;;11.27;87.01
44531;BME280;30240;47.418;0.700;2023-11-19T21:05:09;100819.6533203125;;;11.28;87.03
44531;BME280;30240;47.418;0.700;2023-11-19T21:07:33;100819.6533203125;;;11.28;87.03
44531;BME280;30240;47.418;0.700;2023-11-19T21:09:59;100820.92895507812;;;11.28;87.22
44531;BME280;30240;47.418;0.700;2023-11-19T21:12:24;100817.32177734375;;;11.17;87.38
44531;BME280;30240;47.418;0.700;2023-11-19T21:14:48;100810.5224609375;;;11.12;87.67
44531;BME280;30240;47.418;0.700;2023-11-19T21:17:13;100812.34130859375;;;11.08;87.87
44531;BME280;30240;47.418;0.700;2023-11-19T21:19:40;100812.34130859375;;;11.08;87.87
44531;BME280;30240;47.418;0.700;2023-11-19T21:22:03;100816.064453125;;;11.1;88.04
44531;BME280;30240;47.418;0.700;2023-11-19T21:24:28;100827.64282226562;;;11.0;88.03
44531;BME280;30240;47.418;0.700;2023-11-19T21:26:53;100828.564453125;;;10.99;88.23
44531;BME280;30240;47.418;0.700;2023-11-19T21:29:19;100831.0302734375;;;10.99;88.29
44531;BME280;30240;47.418;0.700;2023-11-19T21:31:43;100831.0302734375;;;10.99;88.29
44531;BME280;30240;47.418;0.700;2023-11-19T21:34:08;100832.97119140625;;;10.95;88.42
44531;BME280;30240;47.418;0.700;2023-11-19T21:36:33;100835.26611328125;;;10.93;88.57
44531;BME280;30240;47.418;0.700;2023-11-19T21:38:58;100840.6494140625;;;10.92;88.6
44531;BME280;30240;47.418;0.700;2023-11-19T21:41:24;100833.70361328125;;;10.89;88.72
44531;BME280;30240;47.418;0.700;2023-11-19T21:43:48;100833.70361328125;;;10.89;88.72
44531;BME280;30240;47.418;0.700;2023-11-19T21:46:13;100829.2724609375;;;10.88;88.78
44531;BME280;30240;47.418;0.700;2023-11-19T21:48:39;100825.9521484375;;;10.88;88.77
44531;BME280;30240;47.418;0.700;2023-11-19T21:51:04;100823.9501953125;;;10.81;88.78
44531;BME280;30240;47.418;0.700;2023-11-19T21:53:28;100822.216796875;;;10.76;88.76
44531;BME280;30240;47.418;0.700;2023-11-19T21:55:53;100822.216796875;;;10.76;88.76
44531;BME280;30240;47.418;0.700;2023-11-19T21:58:18;100821.29516601562;;;10.74;88.87
44531;BME280;30240;47.418;0.700;2023-11-19T22:00:43;100815.85693359375;;;10.71;88.9
44531;BME280;30240;47.418;0.700;2023-11-19T22:03:08;100822.44262695312;;;10.74;88.93
44531;BME280;30240;47.418;0.700;2023-11-19T22:05:33;100822.4365234375;;;10.78;88.8
44531;BME280;30240;47.418;0.700;2023-11-19T22:07:58;100822.4365234375;;;10.78;88.8
44531;BME280;30240;47.418;0.700;2023-11-19T22:10:23;100827.4658203125;;;10.78;88.75
44531;BME280;30240;47.418;0.700;2023-11-19T22:12:48;100827.197265625;;;10.75;88.73
44531;BME280;30240;47.418;0.700;2023-11-19T22:15:14;100821.18530273438;;;10.76;88.79
44531;BME280;30240;47.418;0.700;2023-11-19T22:17:38;100819.68994140625;;;10.82;88.62
44531;BME280;30240;47.418;0.700;2023-11-19T22:20:04;100818.115234375;;;10.79;88.63